createdAt,value
2022-08-17T00:00:08.862Z,4.11
2022-08-17T00:02:17.005Z,4.11
2022-08-17T00:04:12.066Z,4.11
2022-08-17T00:06:13.752Z,4.11
2022-08-17T00:10:17.302Z,4.11
2022-08-17T00:12:35.260Z,4.1
2022-08-17T00:16:20.574Z,4.1
2022-08-17T00:18:57.605Z,4.11
2022-08-17T00:20:23.346Z,4.11
2022-08-17T00:22:33.527Z,4.11
2022-08-17T00:26:34.860Z,4.1
2022-08-17T00:28:27.593Z,4.1
2022-08-17T00:30:29.283Z,4.1
2022-08-17T00:33:10.546Z,4.1
2022-08-17T00:34:32.200Z,4.1
2022-08-17T00:36:33.300Z,4.1
2022-08-17T00:38:34.476Z,4.1
2022-08-17T00:42:37.787Z,4.1
2022-08-17T00:44:39.339Z,4.1
2022-08-17T00:46:40.777Z,4.1
2022-08-17T00:48:41.889Z,4.1
2022-08-17T00:50:43.553Z,4.1
2022-08-17T00:52:45.153Z,4.1
2022-08-17T00:54:46.641Z,4.1
2022-08-17T00:58:48.978Z,4.1
2022-08-17T01:00:50.413Z,4.1
2022-08-17T01:02:51.822Z,4.1
2022-08-17T01:04:53.518Z,4.1
2022-08-17T01:08:57.425Z,4.1
2022-08-17T01:10:58.082Z,4.1
2022-08-17T01:14:59.378Z,4.1
2022-08-17T01:17:00.737Z,4.1
2022-08-17T01:19:02.325Z,4.1
2022-08-17T01:21:03.991Z,4.1
2022-08-17T01:25:07.646Z,4.1
2022-08-17T01:27:10.214Z,4.09
2022-08-17T01:29:10.855Z,4.1
2022-08-17T01:31:12.220Z,4.1
2022-08-17T01:33:13.209Z,4.1
2022-08-17T01:35:14.451Z,4.1
2022-08-17T01:37:15.707Z,4.1
2022-08-17T01:41:18.399Z,4.1
2022-08-17T01:43:19.431Z,4.09
2022-08-17T01:45:21.059Z,4.1
2022-08-17T01:47:22.096Z,4.09
2022-08-17T01:51:24.584Z,4.09
2022-08-17T01:53:26.453Z,4.09
2022-08-17T01:55:27.539Z,4.09
2022-08-17T01:57:28.710Z,4.09
2022-08-17T01:58:12.520Z,4.09
2022-08-17T02:00:13.862Z,4.09
2022-08-17T02:02:30.181Z,4.09
2022-08-17T02:04:16.538Z,4.09
2022-08-17T02:06:27.327Z,4.09
2022-08-17T02:08:19.957Z,4.09
2022-08-17T02:10:20.899Z,4.09
2022-08-17T02:12:37.464Z,4.09
2022-08-17T02:14:23.575Z,4.09
2022-08-17T02:18:25.652Z,4.09
2022-08-17T02:20:41.423Z,4.09
2022-08-17T02:22:28.145Z,4.08
2022-08-17T02:24:59.209Z,4.09
2022-08-17T02:26:30.799Z,4.09
2022-08-17T02:28:32.360Z,4.09
2022-08-17T02:31:02.432Z,4.09
2022-08-17T02:34:36.914Z,4.08
2022-08-17T02:36:38.018Z,4.09
2022-08-17T02:38:39.497Z,4.08
2022-08-17T02:40:40.576Z,4.08
2022-08-17T02:44:43.390Z,4.08
2022-08-17T02:46:45.090Z,4.08
2022-08-17T02:50:47.568Z,4.08
2022-08-17T02:52:51.498Z,4.08
2022-08-17T02:54:50.763Z,4.08
2022-08-17T02:56:52.055Z,4.08
2022-08-17T02:58:53.172Z,4.08
2022-08-17T03:00:55.031Z,4.08
2022-08-17T03:02:56.631Z,4.08
2022-08-17T03:04:57.543Z,4.08
2022-08-17T03:06:58.616Z,4.08
2022-08-17T03:09:00.440Z,4.08
2022-08-17T03:13:02.822Z,4.08
2022-08-17T03:17:06.225Z,4.08
2022-08-17T03:19:07.834Z,4.08
2022-08-17T03:21:08.837Z,4.08
2022-08-17T03:23:10.142Z,4.08
2022-08-17T03:27:13.176Z,4.08
2022-08-17T03:29:14.971Z,4.08
2022-08-17T03:31:15.983Z,4.08
2022-08-17T03:33:17.176Z,4.08
2022-08-17T03:35:18.849Z,4.08
2022-08-17T03:37:20.074Z,4.08
2022-08-17T03:39:21.089Z,4.08
2022-08-17T03:43:23.762Z,4.08
2022-08-17T03:45:25.331Z,4.08
2022-08-17T03:47:26.241Z,4.08
2022-08-17T03:49:27.222Z,4.08
2022-08-17T03:51:28.810Z,4.08
2022-08-17T03:53:30.725Z,4.08
2022-08-17T03:55:35.997Z,4.08
2022-08-17T03:59:35.480Z,4.08
2022-08-17T04:01:36.721Z,4.07
2022-08-17T04:03:37.837Z,4.07
2022-08-17T04:07:40.802Z,4.07
2022-08-17T04:09:41.780Z,4.07
2022-08-17T04:11:42.831Z,4.07
2022-08-17T04:13:44.639Z,4.07
2022-08-17T04:15:46.511Z,4.07
2022-08-17T04:17:47.632Z,4.07
2022-08-17T04:19:49.034Z,4.07
2022-08-17T04:21:50.532Z,4.07
2022-08-17T04:25:52.826Z,4.07
2022-08-17T04:27:54.010Z,4.07
2022-08-17T04:29:56.031Z,4.07
2022-08-17T04:31:57.238Z,4.07
2022-08-17T04:33:59.011Z,4.07
2022-08-17T04:36:00.630Z,4.07
2022-08-17T04:38:02.147Z,4.07
2022-08-17T04:42:04.998Z,4.07
2022-08-17T04:44:06.637Z,4.06
2022-08-17T04:46:07.972Z,4.06
2022-08-17T04:48:09.270Z,4.07
2022-08-17T04:50:10.999Z,4.07
2022-08-17T04:52:29.617Z,4.07
2022-08-17T04:54:13.462Z,4.07
2022-08-17T04:58:15.995Z,4.07
2022-08-17T05:00:17.197Z,4.06
2022-08-17T05:02:19.006Z,4.07
2022-08-17T05:04:21.239Z,4.07
2022-08-17T05:08:23.143Z,4.06
2022-08-17T05:10:24.247Z,4.06
2022-08-17T05:14:32.486Z,4.06
2022-08-17T05:16:29.366Z,4.07
2022-08-17T05:18:30.955Z,4.06
2022-08-17T05:20:31.893Z,4.06
2022-08-17T05:24:38.805Z,4.06
2022-08-17T05:26:36.553Z,4.06
2022-08-17T05:28:37.756Z,4.07
2022-08-17T05:30:39.464Z,4.07
2022-08-17T05:32:40.579Z,4.06
2022-08-17T05:34:42.220Z,4.06
2022-08-17T05:38:45.259Z,4.08
2022-08-17T05:42:48.277Z,4.07
2022-08-17T05:46:51.341Z,4.09
2022-08-17T05:50:53.955Z,4.1
2022-08-17T05:52:55.743Z,4.1
2022-08-17T05:54:57.508Z,4.1
2022-08-17T05:56:59.142Z,4.1
2022-08-17T06:01:02.385Z,4.12
2022-08-17T06:03:04.025Z,4.12
2022-08-17T06:07:06.891Z,4.13
2022-08-17T06:09:08.367Z,4.13
2022-08-17T06:11:09.206Z,4.14
2022-08-17T06:13:10.026Z,4.14
2022-08-17T06:15:10.838Z,4.14
2022-08-17T06:17:11.852Z,4.14
2022-08-17T06:19:12.784Z,4.15
2022-08-17T06:23:15.869Z,4.16
2022-08-17T06:25:16.990Z,4.16
2022-08-17T06:27:18.533Z,4.16
2022-08-17T06:31:21.683Z,4.16
2022-08-17T06:33:23.331Z,4.17
2022-08-17T06:35:26.779Z,4.17
2022-08-17T06:37:26.238Z,4.17
2022-08-17T06:39:27.553Z,4.17
2022-08-17T06:41:29.005Z,4.17
2022-08-17T06:43:30.402Z,4.17
2022-08-17T06:45:31.649Z,4.18
2022-08-17T06:49:34.344Z,4.18
2022-08-17T06:51:35.825Z,4.18
2022-08-17T06:53:37.065Z,4.19
2022-08-17T06:55:38.412Z,4.19
2022-08-17T06:59:54.557Z,4.19
2022-08-17T07:01:42.189Z,4.19
2022-08-17T07:05:44.947Z,4.19
2022-08-17T07:07:45.919Z,4.19
2022-08-17T07:09:46.857Z,4.19
2022-08-17T07:11:47.709Z,4.19
2022-08-17T07:13:51.433Z,4.19
2022-08-17T07:15:53.962Z,4.2
2022-08-17T07:17:52.225Z,4.19
2022-08-17T07:21:55.080Z,4.2
2022-08-17T07:23:56.488Z,4.19
2022-08-17T07:25:58.268Z,4.2
2022-08-17T07:27:59.853Z,4.2
2022-08-17T07:32:01.910Z,4.2
2022-08-17T07:34:03.744Z,4.2
2022-08-17T07:36:05.122Z,4.2
2022-08-17T07:38:06.234Z,4.2
2022-08-17T07:40:15.777Z,4.2
2022-08-17T07:42:09.155Z,4.2
2022-08-17T07:44:10.446Z,4.2
2022-08-17T07:48:15.701Z,4.2
2022-08-17T07:50:14.828Z,4.2
2022-08-17T07:52:24.433Z,4.19
2022-08-17T07:54:17.486Z,4.2
2022-08-17T07:56:18.925Z,4.2
2022-08-17T07:58:19.993Z,4.2
2022-08-17T08:02:22.350Z,4.2
2022-08-17T08:04:37.531Z,4.19
2022-08-17T08:06:25.091Z,4.19
2022-08-17T08:08:25.962Z,4.19
2022-08-17T08:10:27.274Z,4.19
2022-08-17T08:14:29.511Z,4.19
2022-08-17T08:16:31.181Z,4.19
2022-08-17T08:20:35.139Z,4.19
2022-08-17T08:22:35.740Z,4.19
2022-08-17T08:24:36.718Z,4.19
2022-08-17T08:26:37.658Z,4.19
2022-08-17T08:30:40.879Z,4.19
2022-08-17T08:32:41.657Z,4.19
2022-08-17T08:36:56.607Z,4.19
2022-08-17T08:38:45.907Z,4.19
2022-08-17T08:40:46.866Z,4.18
2022-08-17T08:42:48.325Z,4.19
2022-08-17T08:45:33.314Z,4.18
2022-08-17T08:47:35.265Z,4.18
2022-08-17T08:50:01.771Z,4.18
2022-08-17T08:51:37.542Z,4.18
2022-08-17T08:53:38.354Z,4.18
2022-08-17T08:57:41.928Z,4.18
2022-08-17T08:59:44.507Z,4.18
2022-08-17T09:01:44.378Z,4.18
2022-08-17T09:03:52.632Z,4.18
2022-08-17T09:07:47.522Z,4.18
2022-08-17T09:09:48.613Z,4.18
2022-08-17T09:12:01.016Z,4.18
2022-08-17T09:13:54.498Z,4.18
2022-08-17T09:15:53.321Z,4.18
2022-08-17T09:18:08.815Z,4.17
2022-08-17T09:19:55.851Z,4.17
2022-08-17T09:23:58.266Z,4.18
2022-08-17T09:25:59.251Z,4.18
2022-08-17T09:28:00.888Z,4.18
2022-08-17T09:30:01.544Z,4.18
2022-08-17T09:32:02.835Z,4.17
2022-08-17T09:34:03.916Z,4.17
2022-08-17T09:36:05.206Z,4.18
2022-08-17T09:40:07.868Z,4.17
2022-08-17T09:42:09.000Z,4.17
2022-08-17T09:44:13.955Z,4.17
2022-08-17T09:46:10.993Z,4.17
2022-08-17T09:50:13.608Z,4.17
2022-08-17T09:52:14.367Z,4.17
2022-08-17T09:54:37.921Z,4.17
2022-08-17T09:56:16.525Z,4.17
2022-08-17T09:58:17.316Z,4.17
2022-08-17T10:00:18.453Z,4.17
2022-08-17T10:02:19.715Z,4.17
2022-08-17T10:06:22.677Z,4.17
2022-08-17T10:08:23.865Z,4.17
2022-08-17T10:10:25.165Z,4.17
2022-08-17T10:12:29.757Z,4.17
2022-08-17T10:14:36.201Z,4.17
2022-08-17T10:16:29.658Z,4.17
2022-08-17T10:18:32.065Z,4.17
2022-08-17T10:20:31.698Z,4.17
2022-08-17T10:22:35.471Z,4.17
2022-08-17T10:24:33.729Z,4.17
2022-08-17T10:26:43.019Z,4.17
2022-08-17T10:28:36.191Z,4.17
2022-08-17T10:30:37.420Z,4.17
2022-08-17T10:32:39.182Z,4.17
2022-08-17T10:34:41.373Z,4.17
2022-08-17T10:38:42.916Z,4.17
2022-08-17T10:40:44.303Z,4.16
2022-08-17T10:42:45.243Z,4.16
2022-08-17T10:44:46.364Z,4.17
2022-08-17T10:46:47.281Z,4.16
2022-08-17T10:48:48.791Z,4.16
2022-08-17T10:50:50.510Z,4.17
2022-08-17T10:52:52.247Z,4.16
2022-08-17T10:54:54.892Z,4.17
2022-08-17T10:56:54.361Z,4.16
2022-08-17T10:58:55.565Z,4.16
2022-08-17T11:00:56.449Z,4.16
2022-08-17T11:04:58.686Z,4.16
2022-08-17T11:06:59.724Z,4.16
2022-08-17T11:09:01.020Z,4.16
2022-08-17T11:11:02.796Z,4.16
2022-08-17T11:13:03.935Z,4.16
2022-08-17T11:15:05.150Z,4.17
2022-08-17T11:17:06.622Z,4.16
2022-08-17T11:21:09.390Z,4.16
2022-08-17T11:23:10.160Z,4.16
2022-08-17T11:25:11.047Z,4.16
2022-08-17T11:27:12.416Z,4.16
2022-08-17T11:31:14.592Z,4.16
2022-08-17T11:33:15.886Z,4.16
2022-08-17T11:35:17.194Z,4.16
2022-08-17T11:37:18.498Z,4.16
2022-08-17T11:41:21.718Z,4.16
2022-08-17T11:43:23.425Z,4.16
2022-08-17T11:45:32.043Z,4.16
2022-08-17T11:47:25.292Z,4.16
2022-08-17T11:49:26.953Z,4.16
2022-08-17T11:51:27.996Z,4.16
2022-08-17T11:53:29.295Z,4.16
2022-08-17T11:55:35.609Z,4.16
2022-08-17T11:57:32.469Z,4.16
2022-08-17T11:59:33.541Z,4.16
2022-08-17T12:03:35.501Z,4.15
2022-08-17T12:05:36.789Z,4.16
2022-08-17T12:07:37.649Z,4.15
2022-08-17T12:09:39.859Z,4.16
2022-08-17T12:11:55.056Z,4.15
2022-08-17T12:13:42.374Z,4.16
2022-08-17T12:15:43.461Z,4.15
2022-08-17T12:19:45.346Z,4.15
2022-08-17T12:21:46.064Z,4.15
2022-08-17T12:23:47.109Z,4.15
2022-08-17T12:28:05.821Z,4.15
2022-08-17T12:29:51.236Z,4.15
2022-08-17T12:31:52.199Z,4.15
2022-08-17T12:33:53.648Z,4.15
2022-08-17T12:35:58.885Z,4.15
2022-08-17T12:37:55.878Z,4.15
2022-08-17T12:39:57.476Z,4.15
2022-08-17T12:42:02.306Z,4.15
2022-08-17T12:43:59.860Z,4.15
2022-08-17T12:46:13.060Z,4.15
2022-08-17T12:48:02.546Z,4.15
2022-08-17T12:50:03.388Z,4.14
2022-08-17T12:52:04.875Z,4.15
2022-08-17T12:54:06.114Z,4.15
2022-08-17T12:56:07.374Z,4.15
2022-08-17T12:58:12.281Z,4.15
2022-08-17T13:02:10.875Z,4.14
2022-08-17T13:04:12.245Z,4.14
2022-08-17T13:06:13.623Z,4.15
2022-08-17T13:08:14.716Z,4.14
2022-08-17T13:12:17.493Z,4.14
2022-08-17T13:14:18.516Z,4.14
2022-08-17T13:16:19.757Z,4.14
2022-08-17T13:18:21.492Z,4.14
2022-08-17T13:20:22.967Z,4.14
2022-08-17T13:22:24.576Z,4.14
2022-08-17T13:24:25.719Z,4.14
2022-08-17T13:28:30.634Z,4.14
2022-08-17T13:30:29.248Z,4.14
2022-08-17T13:32:30.316Z,4.14
2022-08-17T13:34:31.901Z,4.17
2022-08-17T13:36:33.683Z,4.17
2022-08-17T13:38:34.449Z,4.17
2022-08-17T13:40:35.350Z,4.17
2022-08-17T13:44:38.641Z,4.18
2022-08-17T13:46:39.708Z,4.18
2022-08-17T13:48:40.577Z,4.18
2022-08-17T13:50:43.089Z,4.19
2022-08-17T13:52:46.787Z,4.19
2022-08-17T13:54:45.928Z,4.19
2022-08-17T13:56:47.559Z,4.18
2022-08-17T14:00:49.889Z,4.19
2022-08-17T14:02:51.167Z,4.19
2022-08-17T14:04:51.941Z,4.19
2022-08-17T14:06:54.070Z,4.2
2022-08-17T14:10:55.658Z,4.19
2022-08-17T14:12:56.675Z,4.19
2022-08-17T14:16:59.572Z,4.2
2022-08-17T14:19:00.301Z,4.2
2022-08-17T14:21:01.756Z,4.19
2022-08-17T14:23:02.937Z,4.2
2022-08-17T14:27:05.789Z,4.2
2022-08-17T14:29:06.771Z,4.2
2022-08-17T14:31:08.077Z,4.2
2022-08-17T14:33:09.281Z,4.2
2022-08-17T14:35:10.751Z,4.2
2022-08-17T14:37:12.345Z,4.2
2022-08-17T14:39:13.397Z,4.2
2022-08-17T14:43:16.420Z,4.2
2022-08-17T14:45:29.697Z,4.19
2022-08-17T14:47:18.667Z,4.19
2022-08-17T14:49:20.554Z,4.19
2022-08-17T14:53:23.630Z,4.19
2022-08-17T14:55:25.665Z,4.19
2022-08-17T14:57:33.269Z,4.19
2022-08-17T14:59:28.826Z,4.19
2022-08-17T15:01:29.685Z,4.19
2022-08-17T15:03:30.507Z,4.19
2022-08-17T15:05:32.003Z,4.18
2022-08-17T15:09:33.879Z,4.19
2022-08-17T15:11:34.834Z,4.19
2022-08-17T15:13:35.931Z,4.19
2022-08-17T15:15:37.440Z,4.19
2022-08-17T15:17:44.140Z,4.18
2022-08-17T15:19:39.871Z,4.18
2022-08-17T15:21:40.693Z,4.18
2022-08-17T15:25:43.185Z,4.18
2022-08-17T15:27:44.844Z,4.18
2022-08-17T15:29:45.769Z,4.19
2022-08-17T15:30:29.475Z,4.19
2022-08-17T15:32:31.445Z,4.18
2022-08-17T15:34:33.127Z,4.18
2022-08-17T15:36:34.565Z,4.18
2022-08-17T15:38:35.490Z,4.18
2022-08-17T15:40:36.592Z,4.18
2022-08-17T15:42:37.700Z,4.18
2022-08-17T15:46:40.769Z,4.18
2022-08-17T15:48:42.287Z,4.18
2022-08-17T15:52:44.244Z,4.18
2022-08-17T15:54:45.389Z,4.18
2022-08-17T15:56:46.396Z,4.18
2022-08-17T15:58:47.270Z,4.18
2022-08-17T16:03:15.465Z,4.18
2022-08-17T16:06:53.708Z,4.18
2022-08-17T16:08:54.909Z,4.18
2022-08-17T16:10:55.796Z,4.17
2022-08-17T16:12:57.272Z,4.17
2022-08-17T16:14:58.984Z,4.17
2022-08-17T16:17:00.160Z,4.17
2022-08-17T16:19:01.320Z,4.18
2022-08-17T16:23:04.076Z,4.17
2022-08-17T16:27:11.665Z,4.17
2022-08-17T16:29:07.605Z,4.17
2022-08-17T16:31:09.310Z,4.17
2022-08-17T16:35:11.607Z,4.17
2022-08-17T16:37:12.571Z,4.17
2022-08-17T16:41:15.085Z,4.17
2022-08-17T16:43:15.960Z,4.17
2022-08-17T16:45:16.837Z,4.17
2022-08-17T16:49:29.713Z,4.17
2022-08-17T16:51:20.306Z,4.17
2022-08-17T16:53:21.612Z,4.17
2022-08-17T16:55:23.135Z,4.17
2022-08-17T16:57:23.900Z,4.17
2022-08-17T16:59:31.794Z,4.17
2022-08-17T17:01:26.048Z,4.17
2022-08-17T17:03:26.756Z,4.17
2022-08-17T17:05:27.929Z,4.17
2022-08-17T17:07:28.719Z,4.17
2022-08-17T17:09:29.816Z,4.17
2022-08-17T17:11:30.926Z,4.16
2022-08-17T17:13:32.557Z,4.17
2022-08-17T17:17:35.909Z,4.17
2022-08-17T17:19:37.430Z,4.17
2022-08-17T17:23:40.239Z,4.16
2022-08-17T17:25:41.181Z,4.16
2022-08-17T17:27:42.152Z,4.16
2022-08-17T17:29:46.591Z,4.16
2022-08-17T17:33:46.389Z,4.16
2022-08-17T17:35:48.016Z,4.16
2022-08-17T17:37:48.815Z,4.16
2022-08-17T17:39:50.626Z,4.17
2022-08-17T17:41:51.734Z,4.16
2022-08-17T17:43:53.190Z,4.16
2022-08-17T17:45:54.385Z,4.16
2022-08-17T17:49:57.058Z,4.16
2022-08-17T17:52:07.559Z,4.16
2022-08-17T17:53:59.724Z,4.16
2022-08-17T17:56:01.182Z,4.16
2022-08-17T18:00:03.379Z,4.16
2022-08-17T18:02:05.150Z,4.16
2022-08-17T18:04:08.267Z,4.16
2022-08-17T18:06:07.770Z,4.16
2022-08-17T18:08:09.413Z,4.16
2022-08-17T18:10:13.626Z,4.16
2022-08-17T18:12:12.442Z,4.16
2022-08-17T18:16:14.179Z,4.16
2022-08-17T18:18:15.149Z,4.16
2022-08-17T18:20:16.522Z,4.16
2022-08-17T18:22:17.443Z,4.16
2022-08-17T18:24:19.207Z,4.16
2022-08-17T18:26:20.742Z,4.16
2022-08-17T18:28:22.479Z,4.16
2022-08-17T18:32:25.185Z,4.16
2022-08-17T18:34:46.334Z,4.16
2022-08-17T18:36:28.471Z,4.16
2022-08-17T18:38:29.824Z,4.15
2022-08-17T18:40:30.706Z,4.16
2022-08-17T18:42:32.283Z,4.16
2022-08-17T18:44:34.033Z,4.15
2022-08-17T18:46:35.361Z,4.16
2022-08-17T18:50:37.828Z,4.16
2022-08-17T18:52:39.161Z,4.16
2022-08-17T18:54:40.443Z,4.15
2022-08-17T18:58:43.877Z,4.15
2022-08-17T19:00:45.371Z,4.15
2022-08-17T19:02:46.394Z,4.15
2022-08-17T19:04:47.352Z,4.15
2022-08-17T19:06:48.212Z,4.15
2022-08-17T19:08:49.257Z,4.15
2022-08-17T19:10:50.671Z,4.15
2022-08-17T19:14:52.794Z,4.15
2022-08-17T19:16:53.894Z,4.15
2022-08-17T19:18:54.965Z,4.15
2022-08-17T19:20:55.868Z,4.15
2022-08-17T19:22:57.640Z,4.15
2022-08-17T19:25:02.846Z,4.15
2022-08-17T19:26:59.748Z,4.14
2022-08-17T19:31:01.842Z,4.14
2022-08-17T19:33:03.325Z,4.14
2022-08-17T19:35:04.597Z,4.15
2022-08-17T19:37:05.490Z,4.15
2022-08-17T19:41:08.056Z,4.14
2022-08-17T19:43:09.093Z,4.14
2022-08-17T19:45:09.979Z,4.14
2022-08-17T19:47:11.776Z,4.14
2022-08-17T19:49:13.332Z,4.14
2022-08-17T19:51:15.017Z,4.14
2022-08-17T19:53:16.775Z,4.14
2022-08-17T19:57:19.047Z,4.14
2022-08-17T19:59:20.376Z,4.14
2022-08-17T20:03:23.229Z,4.14
2022-08-17T20:05:24.709Z,4.14
2022-08-17T20:07:25.557Z,4.14
2022-08-17T20:09:29.589Z,4.14
2022-08-17T20:13:33.102Z,4.14
2022-08-17T20:15:31.442Z,4.14
2022-08-17T20:17:32.516Z,4.14
2022-08-17T20:19:33.830Z,4.14
2022-08-17T20:21:34.896Z,4.14
2022-08-17T20:23:35.882Z,4.14
2022-08-17T20:25:37.604Z,4.14
2022-08-17T20:29:40.781Z,4.14
2022-08-17T20:31:42.157Z,4.14
2022-08-17T20:33:43.692Z,4.14
2022-08-17T20:35:45.489Z,4.14
2022-08-17T20:37:47.022Z,4.14
2022-08-17T20:39:48.195Z,4.14
2022-08-17T20:45:53.371Z,4.14
2022-08-17T20:48:07.691Z,4.13
2022-08-17T20:49:56.357Z,4.13
2022-08-17T20:52:01.083Z,4.14
2022-08-17T20:56:01.050Z,4.14
2022-08-17T20:58:02.763Z,4.14
2022-08-17T21:00:04.093Z,4.13
2022-08-17T21:02:05.515Z,4.13
2022-08-17T21:04:06.548Z,4.13
2022-08-17T21:06:12.598Z,4.13
2022-08-17T21:08:09.330Z,4.13
2022-08-17T21:10:10.478Z,4.13
2022-08-17T21:12:12.108Z,4.13
2022-08-17T21:14:13.633Z,4.13
2022-08-17T21:16:15.191Z,4.13
2022-08-17T21:18:16.144Z,4.13
2022-08-17T21:20:17.056Z,4.13
2022-08-17T21:22:18.562Z,4.13
2022-08-17T21:24:20.377Z,4.13
2022-08-17T21:28:22.854Z,4.13
2022-08-17T21:30:24.570Z,4.13
2022-08-17T21:32:25.254Z,4.13
2022-08-17T21:34:26.300Z,4.13
2022-08-17T21:38:29.369Z,4.13
2022-08-17T21:40:31.222Z,4.13
2022-08-17T21:42:32.671Z,4.13
2022-08-17T21:44:34.173Z,4.13
2022-08-17T21:46:35.907Z,4.12
2022-08-17T21:48:37.535Z,4.12
2022-08-17T21:50:38.956Z,4.12
2022-08-17T21:54:41.142Z,4.13
2022-08-17T21:56:42.600Z,4.12
2022-08-17T21:58:46.670Z,4.13
2022-08-17T22:00:45.297Z,4.12
2022-08-17T22:04:48.538Z,4.12
2022-08-17T22:06:52.167Z,4.13
2022-08-17T22:10:52.680Z,4.12
2022-08-17T22:12:53.679Z,4.12
2022-08-17T22:14:54.863Z,4.12
2022-08-17T22:15:39.912Z,4.12
2022-08-17T22:17:39.725Z,4.12
2022-08-17T22:21:42.831Z,4.12
2022-08-17T22:23:44.455Z,4.12
2022-08-17T22:25:46.208Z,4.12
2022-08-17T22:27:47.383Z,4.12
2022-08-17T22:31:49.593Z,4.12
2022-08-17T22:33:51.368Z,4.12
2022-08-17T22:35:53.220Z,4.12
2022-08-17T22:37:54.851Z,4.12
2022-08-17T22:41:58.212Z,4.12
2022-08-17T22:43:59.820Z,4.12
2022-08-17T22:48:03.266Z,4.12
2022-08-17T22:50:04.798Z,4.12
2022-08-17T22:52:06.220Z,4.12
2022-08-17T22:54:07.462Z,4.12
2022-08-17T22:58:10.179Z,4.12
2022-08-17T23:00:11.626Z,4.12
2022-08-17T23:04:14.489Z,4.12
2022-08-17T23:06:15.808Z,4.12
2022-08-17T23:08:17.411Z,4.11
2022-08-17T23:10:18.579Z,4.12
2022-08-17T23:14:21.220Z,4.11
2022-08-17T23:16:22.882Z,4.11
2022-08-17T23:18:23.822Z,4.11
2022-08-17T23:20:24.877Z,4.11
2022-08-17T23:24:27.802Z,4.11
2022-08-17T23:26:29.318Z,4.11
2022-08-17T23:28:31.079Z,4.11
2022-08-17T23:30:32.256Z,4.11
2022-08-17T23:34:34.144Z,4.11
2022-08-17T23:36:35.618Z,4.11
2022-08-17T23:40:39.459Z,4.11
2022-08-17T23:42:43.363Z,4.11
2022-08-17T23:44:41.308Z,4.11
2022-08-17T23:46:42.848Z,4.11
2022-08-17T23:48:43.927Z,4.11
2022-08-17T23:50:45.158Z,4.11
2022-08-17T23:52:46.266Z,4.11
2022-08-17T23:56:48.450Z,4.11
2022-08-17T23:58:50.143Z,4.11
